createdAt,value
2022-12-23T00:00:45.096Z,5.75
2022-12-23T00:03:24.304Z,5.55
2022-12-23T00:05:52.271Z,5.43
2022-12-23T00:08:20.202Z,5.18
2022-12-23T00:10:49.524Z,5.45
2022-12-23T00:13:36.078Z,5.70
2022-12-23T00:16:09.518Z,5.45
2022-12-23T00:18:37.348Z,5.35
2022-12-23T00:21:10.535Z,5.13
2022-12-23T00:23:40.933Z,5.80
2022-12-23T00:26:21.885Z,5.40
2022-12-23T00:28:49.878Z,5.03
2022-12-23T00:31:18.833Z,4.70
2022-12-23T00:33:47.990Z,5.18
2022-12-23T00:36:25.659Z,4.95
2022-12-23T00:39:12.455Z,5.20
2022-12-23T00:41:58.575Z,5.05
2022-12-23T00:44:26.240Z,5.20
2022-12-23T00:46:54.007Z,5.00
2022-12-23T00:49:39.861Z,4.55
2022-12-23T00:52:10.080Z,5.07
2022-12-23T00:54:37.382Z,5.13
2022-12-23T00:57:05.101Z,4.90
2022-12-23T00:59:33.466Z,5.30
2022-12-23T01:02:19.993Z,5.25
2022-12-23T01:05:06.066Z,4.95
2022-12-23T01:07:33.660Z,5.22
2022-12-23T01:10:00.908Z,5.45
2022-12-23T01:12:28.618Z,5.20
2022-12-23T01:14:55.964Z,5.40
2022-12-23T01:17:23.757Z,5.45
2022-12-23T01:19:51.534Z,5.15
2022-12-23T01:22:19.066Z,5.22
2022-12-23T01:24:46.272Z,4.70
2022-12-23T01:27:13.825Z,5.03
2022-12-23T01:29:41.115Z,5.18
2022-12-23T01:32:08.736Z,4.80
2022-12-23T01:34:37.636Z,5.32
2022-12-23T01:37:05.947Z,5.00
2022-12-23T01:39:33.188Z,5.45
2022-12-23T01:42:22.739Z,5.10
2022-12-23T01:45:05.941Z,4.43
2022-12-23T01:47:42.323Z,4.50
2022-12-23T01:50:15.127Z,4.88
2022-12-23T01:53:09.638Z,5.07
2022-12-23T01:55:42.260Z,5.25
2022-12-23T01:58:45.862Z,5.10
2022-12-23T02:01:32.441Z,5.47
2022-12-23T02:04:05.245Z,5.13
2022-12-23T02:06:55.211Z,5.18
2022-12-23T02:09:24.570Z,5.03
2022-12-23T02:12:29.485Z,5.28
2022-12-23T02:15:25.429Z,5.32
2022-12-23T02:18:19.985Z,5.40
2022-12-23T02:21:34.637Z,5.28
2022-12-23T02:24:11.888Z,5.22
2022-12-23T02:27:15.191Z,5.38
2022-12-23T02:30:03.793Z,5.63
2022-12-23T02:32:49.712Z,4.88
2022-12-23T02:37:57.706Z,5.18
2022-12-23T02:40:52.795Z,5.45
2022-12-23T02:43:23.898Z,5.03
2022-12-23T02:46:04.920Z,5.10
2022-12-23T02:48:56.646Z,5.15
2022-12-23T02:51:30.141Z,5.18
2022-12-23T02:54:02.272Z,5.13
2022-12-23T02:56:33.994Z,4.95
2022-12-23T02:59:21.913Z,5.25
2022-12-23T03:01:51.884Z,5.47
2022-12-23T03:04:19.639Z,5.43
2022-12-23T03:06:54.266Z,5.38
2022-12-23T03:09:27.209Z,5.18
2022-12-23T03:12:16.031Z,5.13
2022-12-23T03:15:11.763Z,5.22
2022-12-23T03:18:00.328Z,5.70
2022-12-23T03:20:50.139Z,5.65
2022-12-23T03:23:39.280Z,5.43
2022-12-23T03:26:23.419Z,5.20
2022-12-23T03:29:15.570Z,5.50
2022-12-23T03:31:45.479Z,5.30
2022-12-23T03:34:18.444Z,5.40
2022-12-23T03:36:51.463Z,5.25
2022-12-23T03:39:26.375Z,5.20
2022-12-23T03:42:01.935Z,5.63
2022-12-23T03:44:37.245Z,5.30
2022-12-23T03:47:07.599Z,5.40
2022-12-23T03:49:45.357Z,5.82
2022-12-23T03:52:21.205Z,5.30
2022-12-23T03:54:53.790Z,5.32
2022-12-23T03:57:58.830Z,4.93
2022-12-23T04:00:30.443Z,5.25
2022-12-23T04:03:10.673Z,5.00
2022-12-23T04:05:41.820Z,5.00
2022-12-23T04:08:18.655Z,5.18
2022-12-23T04:10:46.683Z,4.90
2022-12-23T04:13:14.308Z,5.10
2022-12-23T04:15:42.357Z,4.97
2022-12-23T04:18:11.366Z,5.00
2022-12-23T04:20:38.641Z,4.95
2022-12-23T04:23:06.373Z,5.35
2022-12-23T04:25:33.675Z,5.68
2022-12-23T04:28:01.351Z,5.65
2022-12-23T04:30:33.998Z,5.28
2022-12-23T04:33:03.191Z,5.10
2022-12-23T04:35:31.390Z,4.80
2022-12-23T04:37:58.986Z,5.45
2022-12-23T04:40:26.662Z,5.05
2022-12-23T04:42:54.188Z,5.05
2022-12-23T04:45:21.840Z,5.40
2022-12-23T04:47:49.945Z,5.20
2022-12-23T04:50:17.213Z,5.07
2022-12-23T04:52:44.754Z,5.75
2022-12-23T04:55:12.848Z,4.60
2022-12-23T04:57:40.446Z,4.88
2022-12-23T05:00:08.499Z,4.90
2022-12-23T05:02:36.306Z,5.00
2022-12-23T05:05:04.136Z,5.13
2022-12-23T05:07:32.380Z,33.17
2022-12-23T05:10:01.883Z,36.58
2022-12-23T05:12:31.178Z,32.33
2022-12-23T05:14:58.539Z,27.55
2022-12-23T05:17:26.808Z,24.90
2022-12-23T05:19:54.081Z,21.63
2022-12-23T05:22:21.614Z,19.17
2022-12-23T05:24:48.919Z,18.10
2022-12-23T05:27:16.475Z,17.80
2022-12-23T05:29:43.757Z,17.15
2022-12-23T05:32:11.463Z,16.25
2022-12-23T05:34:38.788Z,14.27
2022-12-23T05:37:06.689Z,14.05
2022-12-23T05:39:34.070Z,12.45
2022-12-23T05:42:01.584Z,12.93
2022-12-23T05:44:28.831Z,12.38
2022-12-23T05:46:56.515Z,11.95
2022-12-23T05:49:25.308Z,11.85
2022-12-23T05:51:52.871Z,11.77
2022-12-23T05:54:20.706Z,10.77
2022-12-23T05:56:48.262Z,10.70
2022-12-23T05:59:15.568Z,10.15
2022-12-23T06:01:44.134Z,9.52
2022-12-23T06:04:12.331Z,9.10
2022-12-23T06:06:39.978Z,9.70
2022-12-23T06:09:07.261Z,9.30
2022-12-23T06:11:34.840Z,9.52
2022-12-23T06:14:02.785Z,8.88
2022-12-23T06:16:30.483Z,8.32
2022-12-23T06:18:57.953Z,8.80
2022-12-23T06:21:25.588Z,8.40
2022-12-23T06:23:52.879Z,8.25
2022-12-23T06:26:20.651Z,8.10
2022-12-23T06:28:47.907Z,7.68
2022-12-23T06:31:15.882Z,7.25
2022-12-23T06:33:43.212Z,7.28
2022-12-23T06:36:10.838Z,7.80
2022-12-23T06:38:38.034Z,7.30
2022-12-23T06:41:05.694Z,7.65
2022-12-23T06:43:33.295Z,6.70
2022-12-23T06:46:01.184Z,6.75
2022-12-23T06:48:28.516Z,6.75
2022-12-23T06:50:56.235Z,6.80
2022-12-23T06:53:23.654Z,6.72
2022-12-23T06:55:59.910Z,6.30
2022-12-23T06:58:27.252Z,6.63
2022-12-23T07:00:55.255Z,6.65
2022-12-23T07:03:22.668Z,6.88
2022-12-23T07:05:51.110Z,6.53
2022-12-23T07:08:18.777Z,6.18
2022-12-23T07:10:46.465Z,6.30
2022-12-23T07:13:14.727Z,6.45
2022-12-23T07:15:42.337Z,7.15
2022-12-23T07:18:09.597Z,6.30
2022-12-23T07:20:37.500Z,6.70
2022-12-23T07:23:04.908Z,5.72
2022-12-23T07:25:32.438Z,6.88
2022-12-23T07:27:59.658Z,6.82
2022-12-23T07:30:27.426Z,6.95
2022-12-23T07:32:54.786Z,7.03
2022-12-23T07:35:22.680Z,6.65
2022-12-23T07:37:56.435Z,7.65
2022-12-23T07:40:25.758Z,6.53
2022-12-23T07:42:58.397Z,6.28
2022-12-23T07:45:27.547Z,6.93
2022-12-23T07:47:57.116Z,6.70
2022-12-23T07:50:25.712Z,6.82
2022-12-23T07:52:54.091Z,7.18
2022-12-23T07:55:22.149Z,6.32
2022-12-23T07:57:50.828Z,6.57
2022-12-23T08:00:19.542Z,6.88
2022-12-23T08:02:48.041Z,6.03
2022-12-23T08:05:16.956Z,6.50
2022-12-23T08:07:49.338Z,6.45
2022-12-23T08:10:17.018Z,6.35
2022-12-23T08:12:46.455Z,6.32
2022-12-23T08:15:14.123Z,5.97
2022-12-23T08:17:43.209Z,5.70
2022-12-23T08:20:11.122Z,5.72
2022-12-23T08:22:38.519Z,6.13
2022-12-23T08:25:06.735Z,6.10
2022-12-23T08:27:34.594Z,7.13
2022-12-23T08:30:02.607Z,6.22
2022-12-23T08:32:29.952Z,7.28
2022-12-23T08:34:57.657Z,7.45
2022-12-23T08:37:25.662Z,8.32
2022-12-23T08:39:53.209Z,8.68
2022-12-23T08:42:20.562Z,10.45
2022-12-23T08:44:48.240Z,11.60
2022-12-23T08:47:15.569Z,11.98
2022-12-23T08:49:43.237Z,12.38
2022-12-23T08:52:10.513Z,13.23
2022-12-23T08:54:38.124Z,13.70
2022-12-23T08:57:05.353Z,14.55
2022-12-23T08:59:32.931Z,15.68
2022-12-23T09:02:02.060Z,16.08
2022-12-23T09:04:29.807Z,14.82
2022-12-23T09:06:57.076Z,15.40
2022-12-23T09:09:24.683Z,16.20
2022-12-23T09:11:51.980Z,15.68
2022-12-23T09:14:19.612Z,14.75
2022-12-23T09:16:50.360Z,15.15
2022-12-23T09:19:18.102Z,13.65
2022-12-23T09:21:45.384Z,14.40
2022-12-23T09:24:12.706Z,14.07
2022-12-23T09:26:41.284Z,14.45
2022-12-23T12:20:21.606Z,27.25
2022-12-23T12:22:53.008Z,31.20
2022-12-23T12:25:26.097Z,22.65
2022-12-23T12:27:59.714Z,36.47
2022-12-23T12:30:35.199Z,37.53
2022-12-23T12:33:27.778Z,42.33
2022-12-23T12:36:11.188Z,28.67
2022-12-23T12:38:40.014Z,26.17
2022-12-23T12:41:11.363Z,18.20
2022-12-23T12:43:44.371Z,15.60
2022-12-23T12:46:28.112Z,12.65
2022-12-23T12:49:18.958Z,9.85
2022-12-23T12:52:16.142Z,7.95
2022-12-23T12:54:46.539Z,8.05
2022-12-23T12:57:20.174Z,7.20
2022-12-23T13:00:05.309Z,6.55
2022-12-23T13:03:12.074Z,6.00
2022-12-23T13:06:13.336Z,5.90
2022-12-23T13:09:10.868Z,5.78
2022-12-23T13:11:45.695Z,5.50
2022-12-23T13:14:45.349Z,5.47
2022-12-23T13:17:28.881Z,5.10
2022-12-23T13:20:10.392Z,4.72
2022-12-23T13:22:39.908Z,4.82
2022-12-23T13:25:49.968Z,4.88
2022-12-23T13:28:37.394Z,4.63
2022-12-23T13:31:23.059Z,4.55
2022-12-23T13:34:22.562Z,4.13
2022-12-23T13:37:07.667Z,4.78
2022-12-23T13:39:55.953Z,4.50
2022-12-23T13:42:31.115Z,4.40
2022-12-23T13:45:00.008Z,4.28
2022-12-23T13:48:10.663Z,4.13
2022-12-23T13:51:04.151Z,4.28
2022-12-23T13:54:04.526Z,4.20
2022-12-23T13:56:41.769Z,3.67
2022-12-23T13:59:11.665Z,4.10
2022-12-23T14:01:41.945Z,4.07
2022-12-23T14:04:34.806Z,3.75
2022-12-23T14:07:22.607Z,3.50
2022-12-23T14:09:57.223Z,4.63
2022-12-23T14:12:39.558Z,3.80
2022-12-23T14:15:26.135Z,3.88
2022-12-23T14:18:30.535Z,4.25
2022-12-23T14:21:07.156Z,3.63
2022-12-23T14:24:05.426Z,3.80
2022-12-23T14:26:57.851Z,4.05
2022-12-23T14:29:52.778Z,3.53
2022-12-23T14:32:25.259Z,3.92
2022-12-23T14:35:18.290Z,3.65
2022-12-23T14:38:08.159Z,3.58
2022-12-23T14:40:38.482Z,3.80
2022-12-23T14:43:27.703Z,3.72
2022-12-23T14:45:56.897Z,3.40
2022-12-23T14:48:33.337Z,3.70
2022-12-23T14:51:10.734Z,3.67
2022-12-23T14:54:00.091Z,3.83
2022-12-23T14:56:59.988Z,3.67
2022-12-23T14:59:40.768Z,3.30
2022-12-23T15:02:30.360Z,3.47
2022-12-23T15:04:59.135Z,3.45
2022-12-23T15:07:32.920Z,3.50
2022-12-23T15:10:05.877Z,3.85
2022-12-23T15:12:37.078Z,3.92
2022-12-23T15:15:28.095Z,4.10
2022-12-23T15:18:09.780Z,3.70
2022-12-23T15:20:37.610Z,3.58
2022-12-23T15:23:15.888Z,4.10
2022-12-23T15:25:48.835Z,3.70
2022-12-23T15:28:20.131Z,3.78
2022-12-23T15:30:52.364Z,3.63
2022-12-23T15:36:15.342Z,3.70
2022-12-23T15:38:42.723Z,3.85
2022-12-23T15:41:18.471Z,3.78
2022-12-23T15:43:46.194Z,3.63
2022-12-23T15:46:29.229Z,3.33
2022-12-23T15:48:58.228Z,3.90
2022-12-23T15:54:45.422Z,3.70
2022-12-23T15:57:19.278Z,3.65
2022-12-23T15:59:46.750Z,4.00
2022-12-23T16:05:37.594Z,4.50
2022-12-23T16:08:21.789Z,4.93
2022-12-23T16:11:03.539Z,4.65
2022-12-23T16:13:31.837Z,4.93
2022-12-23T16:16:18.793Z,4.70
2022-12-23T16:18:47.919Z,4.97
2022-12-23T16:21:15.933Z,4.93
2022-12-23T16:23:51.203Z,4.32
2022-12-23T16:26:19.808Z,4.57
2022-12-23T16:28:51.060Z,4.68
2022-12-23T16:31:20.304Z,4.85
2022-12-23T16:33:47.815Z,4.30
2022-12-23T16:36:27.014Z,4.63
2022-12-23T16:39:05.683Z,4.85
2022-12-23T16:41:33.730Z,4.50
2022-12-23T16:44:02.100Z,4.82
2022-12-23T16:46:37.336Z,5.22
2022-12-23T16:49:08.327Z,4.75
2022-12-23T16:51:37.899Z,4.60
2022-12-23T16:54:05.490Z,5.10
2022-12-23T16:56:36.002Z,4.90
2022-12-23T16:59:03.927Z,4.35
2022-12-23T17:01:34.754Z,4.78
2022-12-23T17:04:03.135Z,4.93
2022-12-23T17:06:30.535Z,4.70
2022-12-23T17:08:58.266Z,5.35
2022-12-23T17:11:29.030Z,4.85
2022-12-23T17:14:03.860Z,5.05
2022-12-23T17:16:33.944Z,5.10
2022-12-23T17:19:01.602Z,5.50
2022-12-23T17:21:31.018Z,5.20
2022-12-23T17:24:12.871Z,5.25
2022-12-23T17:26:40.153Z,5.07
2022-12-23T17:29:12.035Z,5.13
2022-12-23T17:31:42.023Z,4.68
2022-12-23T17:34:23.461Z,5.00
2022-12-23T17:36:51.455Z,5.05
2022-12-23T17:39:20.250Z,5.45
2022-12-23T17:41:48.495Z,5.43
2022-12-23T17:44:17.848Z,4.97
2022-12-23T17:46:46.602Z,5.22
2022-12-23T17:49:14.370Z,5.05
2022-12-23T17:51:42.758Z,5.55
2022-12-23T17:54:30.726Z,5.70
2022-12-23T17:56:58.132Z,5.60
2022-12-23T17:59:25.904Z,5.45
2022-12-23T18:01:54.202Z,5.70
2022-12-23T18:04:21.965Z,5.97
2022-12-23T18:06:49.378Z,4.95
2022-12-23T18:09:18.824Z,5.70
2022-12-23T18:11:47.466Z,5.38
2022-12-23T18:14:23.663Z,6.13
2022-12-23T18:16:50.937Z,6.55
2022-12-23T18:19:20.135Z,5.70
2022-12-23T18:21:48.001Z,6.05
2022-12-23T18:24:15.935Z,5.88
2022-12-23T18:26:43.574Z,6.43
2022-12-23T18:29:11.222Z,6.20
2022-12-23T18:31:50.997Z,6.40
2022-12-23T18:34:20.378Z,6.43
2022-12-23T18:36:48.318Z,6.45
2022-12-23T18:39:16.167Z,6.35
2022-12-23T18:41:43.480Z,5.50
2022-12-23T18:44:20.857Z,6.00
2022-12-23T18:46:48.949Z,6.15
2022-12-23T18:49:16.633Z,5.90
2022-12-23T18:51:43.875Z,5.47
2022-12-23T18:54:16.056Z,5.88
2022-12-23T18:56:43.816Z,5.50
2022-12-23T18:59:24.252Z,6.03
2022-12-23T19:01:57.499Z,5.80
2022-12-23T19:04:26.693Z,5.60
2022-12-23T19:06:55.887Z,6.20
2022-12-23T19:09:24.717Z,5.97
2022-12-23T19:11:53.529Z,6.70
2022-12-23T19:14:22.069Z,5.90
2022-12-23T19:16:51.932Z,5.90
2022-12-23T19:19:21.022Z,5.50
2022-12-23T19:21:48.780Z,6.20
2022-12-23T19:24:16.617Z,5.95
2022-12-23T19:26:43.888Z,6.00
2022-12-23T19:29:13.917Z,6.00
2022-12-23T19:31:41.314Z,6.03
2022-12-23T19:34:15.107Z,5.72
2022-12-23T19:36:43.615Z,5.47
2022-12-23T19:39:17.256Z,5.50
2022-12-23T19:41:45.678Z,5.55
2022-12-23T19:44:13.968Z,6.20
2022-12-23T19:46:41.736Z,5.32
2022-12-23T19:49:14.015Z,5.95
2022-12-23T19:51:45.188Z,5.70
2022-12-23T19:54:12.847Z,5.70
2022-12-23T19:56:40.968Z,5.80
2022-12-23T19:59:08.958Z,6.13
2022-12-23T20:01:36.239Z,6.05
2022-12-23T20:04:04.844Z,5.50
2022-12-23T20:06:34.744Z,5.97
2022-12-23T20:09:06.325Z,5.43
2022-12-23T20:11:42.202Z,6.00
2022-12-23T20:14:10.833Z,5.55
2022-12-23T20:16:39.365Z,5.47
2022-12-23T20:19:08.227Z,5.47
2022-12-23T20:21:38.491Z,5.93
2022-12-23T20:24:06.855Z,6.10
2022-12-23T20:26:34.331Z,6.15
2022-12-23T20:29:01.969Z,5.45
2022-12-23T20:31:31.689Z,5.78
2022-12-23T20:34:01.203Z,6.32
2022-12-23T20:36:31.719Z,5.70
2022-12-23T20:39:02.022Z,5.40
2022-12-23T20:41:31.496Z,5.82
2022-12-23T20:46:47.570Z,5.90
2022-12-23T20:49:15.274Z,5.30
2022-12-23T20:51:42.595Z,5.40
2022-12-23T20:54:10.270Z,6.15
2022-12-23T20:56:37.591Z,5.45
2022-12-23T20:59:05.293Z,5.88
2022-12-23T21:01:38.905Z,5.53
2022-12-23T21:04:09.701Z,5.78
2022-12-23T21:06:37.113Z,5.43
2022-12-23T21:09:06.745Z,6.40
2022-12-23T21:11:37.689Z,5.60
2022-12-23T21:14:07.449Z,5.78
2022-12-23T21:16:36.814Z,5.93
2022-12-23T21:19:08.409Z,6.10
2022-12-23T21:21:35.883Z,7.03
2022-12-23T21:24:05.075Z,5.78
2022-12-23T21:26:33.999Z,5.72
2022-12-23T21:29:04.491Z,7.07
2022-12-23T21:31:34.417Z,5.75
2022-12-23T21:34:02.540Z,5.40
2022-12-23T21:36:32.518Z,5.25
2022-12-23T21:39:00.654Z,5.55
2022-12-23T21:41:31.225Z,5.70
2022-12-23T21:44:00.155Z,5.75
2022-12-23T21:46:28.955Z,5.65
2022-12-23T21:48:58.674Z,5.88
2022-12-23T21:51:33.311Z,6.03
2022-12-23T21:54:07.294Z,5.50
2022-12-23T21:56:35.516Z,6.13
2022-12-23T21:59:10.214Z,5.72
2022-12-23T22:01:38.112Z,5.47
2022-12-23T22:04:06.217Z,5.80
2022-12-23T22:06:37.196Z,5.43
2022-12-23T22:09:06.635Z,5.82
2022-12-23T22:11:36.659Z,6.07
2022-12-23T22:14:06.690Z,6.10
2022-12-23T22:16:35.841Z,5.53
2022-12-23T22:19:04.951Z,5.60
2022-12-23T22:21:33.783Z,5.57
2022-12-23T22:24:02.854Z,5.80
2022-12-23T22:26:31.859Z,6.50
2022-12-23T22:29:01.991Z,5.65
2022-12-23T23:12:54.467Z,7.03
2022-12-23T23:15:22.079Z,7.40
2022-12-23T23:17:49.373Z,7.53
2022-12-23T23:20:17.038Z,7.18
2022-12-23T23:22:44.545Z,7.90
2022-12-23T23:25:12.127Z,7.53
2022-12-23T23:27:39.340Z,8.23
2022-12-23T23:30:07.495Z,7.78
2022-12-23T23:32:34.904Z,7.55
2022-12-23T23:35:08.711Z,7.43
2022-12-23T23:37:38.001Z,7.47
2022-12-23T23:40:06.428Z,7.15
2022-12-23T23:42:34.203Z,8.35
2022-12-23T23:45:01.860Z,7.28
2022-12-23T23:47:34.365Z,7.70
2022-12-23T23:50:03.831Z,8.23
2022-12-23T23:52:31.366Z,7.78
2022-12-23T23:54:58.936Z,7.72
2022-12-23T23:57:26.811Z,8.18
2022-12-23T23:59:54.399Z,8.13
